createdAt,value
2024-02-02T00:01:46.532Z,56.13
2024-02-02T00:04:24.704Z,55.78
2024-02-02T00:07:03.142Z,56.65
2024-02-02T00:09:40.476Z,55.36
2024-02-02T00:12:21.822Z,54.98
2024-02-02T00:15:03.282Z,55.43
2024-02-02T00:17:41.231Z,54.79
2024-02-02T00:20:24.909Z,54.25
2024-02-02T00:23:00.230Z,54.24
2024-02-02T00:25:41.084Z,54.80
2024-02-02T00:28:21.888Z,54.72
2024-02-02T00:30:54.964Z,54.61
2024-02-02T00:33:32.734Z,54.48
2024-02-02T00:36:12.222Z,54.00
2024-02-02T00:38:52.756Z,54.62
2024-02-02T00:41:29.699Z,54.78
2024-02-02T00:44:08.377Z,54.74
2024-02-02T00:46:43.155Z,56.99
2024-02-02T00:49:24.696Z,57.35
2024-02-02T00:51:58.251Z,55.36
2024-02-02T00:54:33.113Z,54.87
2024-02-02T00:57:13.748Z,54.12
2024-02-02T00:59:51.429Z,54.44
2024-02-02T01:02:29.189Z,55.04
2024-02-02T01:05:09.709Z,54.80
2024-02-02T01:07:42.575Z,54.07
2024-02-02T01:10:20.510Z,54.24
2024-02-02T01:13:04.215Z,55.06
2024-02-02T01:15:41.838Z,54.91
2024-02-02T01:18:19.218Z,54.83
2024-02-02T01:20:57.717Z,54.72
2024-02-02T01:23:53.231Z,54.96
2024-02-02T01:26:31.488Z,54.87
2024-02-02T01:29:11.883Z,54.72
2024-02-02T01:31:53.146Z,55.60
2024-02-02T01:34:31.595Z,55.49
2024-02-02T01:37:12.123Z,55.84
2024-02-02T01:39:51.782Z,56.67
2024-02-02T01:42:24.296Z,56.16
2024-02-02T01:45:02.701Z,56.26
2024-02-02T01:47:43.814Z,55.69
2024-02-02T01:50:22.970Z,55.30
2024-02-02T01:53:00.881Z,55.27
2024-02-02T01:55:41.805Z,56.17
2024-02-02T01:58:22.614Z,54.44
2024-02-02T02:01:00.168Z,54.85
2024-02-02T02:03:41.291Z,53.97
2024-02-02T02:06:13.638Z,53.95
2024-02-02T02:09:04.337Z,54.13
2024-02-02T02:11:42.509Z,53.49
2024-02-02T02:14:18.074Z,55.61
2024-02-02T02:16:59.215Z,55.36
2024-02-02T02:19:37.287Z,55.69
2024-02-02T02:22:14.883Z,54.87
2024-02-02T02:24:49.543Z,55.22
2024-02-02T02:27:20.529Z,54.78
2024-02-02T02:29:56.385Z,55.45
2024-02-02T02:32:33.909Z,54.00
2024-02-02T02:35:21.594Z,53.93
2024-02-02T02:37:58.244Z,54.70
2024-02-02T02:40:35.114Z,54.96
2024-02-02T02:43:09.607Z,54.04
2024-02-02T02:45:48.626Z,53.31
2024-02-02T02:48:27.848Z,54.20
2024-02-02T02:51:00.261Z,54.03
2024-02-02T02:53:41.072Z,53.67
2024-02-02T02:56:14.343Z,54.40
2024-02-02T02:58:48.196Z,53.79
2024-02-02T03:01:25.525Z,53.37
2024-02-02T03:04:03.219Z,52.85
2024-02-02T03:06:37.820Z,53.31
2024-02-02T03:09:15.942Z,52.92
2024-02-02T03:11:53.663Z,52.24
2024-02-02T03:14:31.862Z,52.38
2024-02-02T03:17:10.090Z,52.59
2024-02-02T03:19:47.941Z,51.79
2024-02-02T03:22:29.150Z,52.24
2024-02-02T03:25:10.182Z,52.12
2024-02-02T03:27:45.556Z,52.06
2024-02-02T03:30:28.453Z,52.12
2024-02-02T03:33:04.437Z,52.48
2024-02-02T03:35:44.796Z,52.09
2024-02-02T03:38:20.664Z,51.72
2024-02-02T03:40:57.166Z,52.25
2024-02-02T03:43:32.706Z,52.76
2024-02-02T03:46:14.148Z,51.90
2024-02-02T03:48:46.451Z,51.25
2024-02-02T03:51:23.527Z,51.90
2024-02-02T03:53:58.407Z,51.63
2024-02-02T03:56:33.204Z,51.08
2024-02-02T03:59:14.072Z,51.83
2024-02-02T04:01:55.504Z,51.38
2024-02-02T04:04:35.527Z,50.77
2024-02-02T04:07:10.311Z,50.13
2024-02-02T04:09:48.176Z,50.26
2024-02-02T04:12:26.360Z,50.46
2024-02-02T04:15:01.791Z,50.00
2024-02-02T04:17:33.599Z,49.52
2024-02-02T04:20:16.812Z,49.49
2024-02-02T04:22:54.793Z,49.31
2024-02-02T04:25:32.491Z,49.56
2024-02-02T04:28:10.112Z,49.38
2024-02-02T04:30:42.799Z,49.51
2024-02-02T04:33:15.473Z,49.83
2024-02-02T04:35:53.706Z,49.89
2024-02-02T04:38:32.176Z,49.45
2024-02-02T04:41:07.293Z,49.52
2024-02-02T04:43:48.560Z,49.18
2024-02-02T04:46:26.700Z,49.23
2024-02-02T04:49:07.370Z,49.25
2024-02-02T04:51:42.380Z,49.33
2024-02-02T04:54:23.158Z,48.48
2024-02-02T04:57:00.786Z,48.83
2024-02-02T04:59:39.023Z,48.32
2024-02-02T05:02:22.894Z,48.77
2024-02-02T05:05:00.234Z,48.86
2024-02-02T05:07:32.538Z,48.92
2024-02-02T05:10:10.414Z,49.82
2024-02-02T05:12:44.304Z,48.54
2024-02-02T05:15:24.223Z,48.95
2024-02-02T05:18:05.247Z,49.28
2024-02-02T05:20:48.227Z,49.00
2024-02-02T05:23:28.927Z,48.78
2024-02-02T05:26:06.238Z,49.21
2024-02-02T05:28:41.484Z,48.97
2024-02-02T05:31:22.556Z,49.82
2024-02-02T05:34:01.146Z,50.25
2024-02-02T05:36:41.878Z,49.78
2024-02-02T05:39:22.853Z,50.29
2024-02-02T05:42:00.508Z,51.25
2024-02-02T05:44:43.586Z,50.06
2024-02-02T05:47:22.287Z,49.37
2024-02-02T05:50:00.298Z,49.33
2024-02-02T05:52:38.798Z,49.57
2024-02-02T05:55:16.072Z,49.01
2024-02-02T05:57:54.418Z,49.46
2024-02-02T06:00:32.204Z,49.72
2024-02-02T06:03:16.311Z,49.80
2024-02-02T06:05:56.399Z,49.66
2024-02-02T06:08:31.800Z,49.21
2024-02-02T06:11:09.790Z,49.27
2024-02-02T06:13:46.268Z,48.77
2024-02-02T06:16:28.072Z,48.65
2024-02-02T06:19:06.030Z,48.79
2024-02-02T06:21:38.853Z,49.17
2024-02-02T06:24:11.966Z,49.36
2024-02-02T06:26:47.217Z,50.09
2024-02-02T06:32:02.131Z,49.05
2024-02-02T06:34:39.768Z,49.48
2024-02-02T06:37:17.106Z,50.50
2024-02-02T06:39:57.248Z,49.72
2024-02-02T06:42:33.237Z,49.97
2024-02-02T06:45:09.317Z,49.71
2024-02-02T06:47:50.237Z,49.59
2024-02-02T06:50:25.426Z,49.39
2024-02-02T06:53:09.565Z,48.77
2024-02-02T06:55:50.558Z,49.20
2024-02-02T06:58:41.963Z,48.97
2024-02-02T07:01:19.507Z,49.01
2024-02-02T07:04:02.481Z,48.28
2024-02-02T07:06:39.412Z,49.21
2024-02-02T07:09:30.415Z,49.25
2024-02-02T07:12:12.332Z,48.51
2024-02-02T07:15:05.446Z,48.69
2024-02-02T07:17:45.917Z,48.60
2024-02-02T07:20:42.638Z,48.46
2024-02-02T07:23:29.602Z,48.69
2024-02-02T07:26:08.167Z,48.46
2024-02-02T07:28:39.839Z,48.86
2024-02-02T07:31:14.844Z,48.21
2024-02-02T07:33:55.520Z,48.23
2024-02-02T07:36:37.413Z,48.68
2024-02-02T07:39:30.622Z,48.02
2024-02-02T07:42:05.860Z,48.23
2024-02-02T07:44:47.244Z,47.87
2024-02-02T07:47:25.081Z,47.93
2024-02-02T07:50:00.121Z,47.78
2024-02-02T07:52:33.276Z,47.68
2024-02-02T07:55:11.486Z,47.09
2024-02-02T07:57:49.972Z,47.52
2024-02-02T08:00:24.591Z,47.26
2024-02-02T08:03:05.072Z,46.95
2024-02-02T08:05:44.568Z,46.85
2024-02-02T08:08:19.050Z,47.16
2024-02-02T08:10:56.110Z,47.84
2024-02-02T08:13:32.103Z,47.04
2024-02-02T08:16:11.698Z,46.44
2024-02-02T08:18:49.330Z,46.26
2024-02-02T08:21:27.277Z,45.81
2024-02-02T08:24:07.247Z,46.69
2024-02-02T08:26:46.714Z,45.66
2024-02-02T08:29:21.151Z,45.77
2024-02-02T08:31:58.612Z,45.82
2024-02-02T08:34:34.829Z,46.45
2024-02-02T08:37:15.693Z,47.17
2024-02-02T08:39:50.945Z,46.33
2024-02-02T08:42:27.402Z,46.86
2024-02-02T08:45:02.423Z,46.62
2024-02-02T08:47:40.426Z,47.00
2024-02-02T08:50:16.415Z,47.13
2024-02-02T08:52:46.439Z,47.50
2024-02-02T08:55:41.165Z,48.02
2024-02-02T08:58:22.276Z,47.94
2024-02-02T09:01:00.575Z,47.37
2024-02-02T09:03:46.715Z,47.64
2024-02-02T09:06:31.692Z,46.74
2024-02-02T09:09:11.192Z,46.30
2024-02-02T09:11:51.693Z,46.00
2024-02-02T09:14:27.858Z,46.01
2024-02-02T09:17:01.482Z,45.75
2024-02-02T09:19:38.754Z,46.09
2024-02-02T09:22:18.706Z,45.75
2024-02-02T09:24:58.200Z,46.16
2024-02-02T09:27:41.596Z,45.71
2024-02-02T09:30:34.088Z,44.79
2024-02-02T09:33:29.532Z,46.33
2024-02-02T09:36:08.207Z,44.60
2024-02-02T09:39:04.460Z,44.58
2024-02-02T09:42:06.099Z,44.77
2024-02-02T09:45:13.504Z,44.87
2024-02-02T09:48:17.653Z,44.62
2024-02-02T09:51:10.633Z,44.62
2024-02-02T09:53:54.260Z,44.66
2024-02-02T09:56:58.702Z,43.84
2024-02-02T09:59:42.958Z,43.45
2024-02-02T10:02:43.880Z,43.58
2024-02-02T10:05:38.267Z,43.95
2024-02-02T10:08:51.711Z,43.85
2024-02-02T10:11:52.001Z,43.74
2024-02-02T10:14:50.318Z,43.21
2024-02-02T10:17:36.157Z,43.52
2024-02-02T10:20:33.059Z,43.42
2024-02-02T10:23:25.590Z,43.01
2024-02-02T10:26:31.146Z,43.49
2024-02-02T10:29:28.683Z,43.64
2024-02-02T10:32:19.559Z,43.95
2024-02-02T10:35:00.463Z,43.41
2024-02-02T10:37:33.362Z,43.72
2024-02-02T10:40:22.524Z,43.70
2024-02-02T10:43:08.166Z,43.53
2024-02-02T10:46:05.831Z,42.92
2024-02-02T10:49:02.017Z,42.67
2024-02-02T10:51:43.449Z,42.56
2024-02-02T10:54:34.648Z,43.03
2024-02-02T10:57:08.356Z,42.67
2024-02-02T11:00:14.605Z,42.51
2024-02-02T11:03:15.461Z,42.79
2024-02-02T11:05:57.183Z,42.63
2024-02-02T11:08:37.851Z,42.97
2024-02-02T11:11:28.701Z,43.09
2024-02-02T11:14:14.656Z,43.03
2024-02-02T11:17:15.985Z,43.02
2024-02-02T11:20:10.303Z,42.10
2024-02-02T11:23:01.374Z,42.36
2024-02-02T11:25:44.695Z,41.77
2024-02-02T11:28:35.858Z,41.04
2024-02-02T11:31:28.782Z,42.40
2024-02-02T11:34:17.517Z,40.78
2024-02-02T11:37:03.551Z,41.70
2024-02-02T11:40:09.632Z,41.94
2024-02-02T11:42:53.761Z,40.90
2024-02-02T11:45:29.613Z,41.29
2024-02-02T11:48:05.434Z,41.00
2024-02-02T11:50:55.685Z,41.06
2024-02-02T11:53:52.875Z,40.78
2024-02-02T11:56:36.548Z,40.65
2024-02-02T11:59:15.124Z,40.14
2024-02-02T12:02:13.107Z,39.99
2024-02-02T12:04:52.179Z,39.51
2024-02-02T12:07:41.598Z,40.05
2024-02-02T12:10:22.615Z,39.62
2024-02-02T12:13:26.593Z,39.58
2024-02-02T12:16:01.095Z,39.31
2024-02-02T12:18:39.208Z,38.97
2024-02-02T12:21:16.896Z,39.23
2024-02-02T12:23:55.975Z,38.97
2024-02-02T12:26:33.956Z,39.00
2024-02-02T12:29:09.275Z,39.16
2024-02-02T12:31:44.330Z,38.88
2024-02-02T12:34:25.426Z,38.49
2024-02-02T12:37:03.442Z,38.17
2024-02-02T12:39:42.255Z,38.35
2024-02-02T12:42:19.521Z,38.49
2024-02-02T12:44:52.261Z,39.01
2024-02-02T12:47:30.741Z,38.57
2024-02-02T12:50:01.688Z,38.46
2024-02-02T12:52:39.284Z,38.48
2024-02-02T12:55:17.568Z,38.51
2024-02-02T12:57:53.384Z,38.34
2024-02-02T13:00:27.287Z,37.86
2024-02-02T13:03:03.321Z,38.33
2024-02-02T13:05:41.839Z,37.93
2024-02-02T13:08:28.964Z,37.57
2024-02-02T13:11:09.347Z,37.70
2024-02-02T13:13:43.608Z,37.96
2024-02-02T13:16:36.074Z,37.77
2024-02-02T13:19:31.941Z,37.54
2024-02-02T13:22:27.798Z,37.56
2024-02-02T13:25:03.129Z,37.58
2024-02-02T13:27:40.641Z,37.32
2024-02-02T13:30:28.140Z,37.59
2024-02-02T13:33:09.026Z,37.77
2024-02-02T13:35:48.094Z,37.77
2024-02-02T13:38:24.139Z,38.00
2024-02-02T13:41:02.840Z,37.90
2024-02-02T13:43:36.684Z,39.38
2024-02-02T13:46:12.924Z,39.50
2024-02-02T13:48:48.165Z,39.21
2024-02-02T13:51:29.554Z,39.57
2024-02-02T13:54:09.698Z,39.86
2024-02-02T13:56:42.878Z,39.86
2024-02-02T13:59:22.406Z,39.25
2024-02-02T14:02:06.891Z,38.77
2024-02-02T14:04:44.100Z,38.91
2024-02-02T14:07:55.248Z,39.51
2024-02-02T14:10:57.639Z,39.49
2024-02-02T14:13:33.137Z,39.49
2024-02-02T14:16:06.685Z,39.66
2024-02-02T14:18:44.051Z,39.29
2024-02-02T14:21:29.589Z,40.20
2024-02-02T14:24:18.227Z,39.84
2024-02-02T14:27:03.154Z,39.80
2024-02-02T14:29:50.118Z,39.75
2024-02-02T14:32:22.626Z,39.51
2024-02-02T14:35:00.777Z,39.58
2024-02-02T14:37:33.322Z,40.29
2024-02-02T14:40:08.117Z,40.33
2024-02-02T14:42:44.009Z,41.32
2024-02-02T14:45:20.686Z,40.94
2024-02-02T14:47:53.872Z,40.49
2024-02-02T14:50:26.441Z,41.55
2024-02-02T14:53:01.454Z,41.09
2024-02-02T14:55:34.363Z,41.21
2024-02-02T14:58:12.484Z,40.73
2024-02-02T15:00:45.929Z,41.56
2024-02-02T15:03:26.951Z,42.06
2024-02-02T15:06:02.530Z,42.45
2024-02-02T15:08:37.214Z,42.43
2024-02-02T15:11:08.952Z,42.96
2024-02-02T15:13:50.225Z,42.16
2024-02-02T15:16:25.168Z,41.97
2024-02-02T15:18:59.855Z,42.47
2024-02-02T15:21:35.046Z,42.58
2024-02-02T15:24:14.131Z,42.62
2024-02-02T15:26:47.228Z,42.23
2024-02-02T15:29:22.290Z,42.75
2024-02-02T15:31:58.279Z,42.86
2024-02-02T15:34:36.372Z,42.57
2024-02-02T15:37:14.233Z,42.28
2024-02-02T15:40:02.079Z,42.59
2024-02-02T15:42:37.662Z,42.27
2024-02-02T15:45:16.125Z,42.86
2024-02-02T15:47:54.473Z,42.12
2024-02-02T15:50:36.949Z,41.81
2024-02-02T15:53:15.595Z,41.86
2024-02-02T15:55:55.334Z,42.34
2024-02-02T15:58:33.403Z,42.23
2024-02-02T16:01:13.512Z,42.38
2024-02-02T16:03:51.686Z,42.21
2024-02-02T16:06:32.432Z,42.21
2024-02-02T16:09:10.665Z,42.82
2024-02-02T16:11:43.023Z,43.23
2024-02-02T16:14:16.890Z,43.31
2024-02-02T16:16:58.548Z,43.51
2024-02-02T16:19:42.670Z,43.22
2024-02-02T16:22:23.327Z,43.21
2024-02-02T16:25:04.081Z,43.25
2024-02-02T16:27:41.726Z,43.19
2024-02-02T16:30:17.542Z,43.28
2024-02-02T16:32:52.472Z,43.26
2024-02-02T16:35:30.350Z,43.49
2024-02-02T16:38:06.096Z,43.35
2024-02-02T16:40:35.601Z,43.42
2024-02-02T16:43:15.772Z,43.55
2024-02-02T16:45:57.037Z,43.74
2024-02-02T16:48:35.228Z,43.94
2024-02-02T16:51:23.593Z,44.30
2024-02-02T16:54:01.922Z,44.32
2024-02-02T16:56:37.191Z,44.30
2024-02-02T16:59:09.564Z,44.33
2024-02-02T17:01:47.936Z,44.64
2024-02-02T17:04:23.586Z,44.75
2024-02-02T17:06:57.132Z,44.47
2024-02-02T17:09:34.900Z,44.34
2024-02-02T17:12:21.172Z,44.38
2024-02-02T17:15:01.886Z,44.49
2024-02-02T17:17:34.086Z,44.59
2024-02-02T17:20:19.180Z,44.62
2024-02-02T17:22:55.627Z,44.75
2024-02-02T17:25:33.756Z,44.86
2024-02-02T17:28:14.076Z,44.59
2024-02-02T17:30:52.673Z,44.75
2024-02-02T17:33:26.285Z,44.94
2024-02-02T17:36:08.892Z,44.88
2024-02-02T17:38:45.279Z,44.96
2024-02-02T17:41:28.293Z,44.66
2024-02-02T17:44:06.817Z,45.08
2024-02-02T17:46:40.326Z,45.27
2024-02-02T17:49:13.178Z,44.94
2024-02-02T17:51:50.929Z,45.18
2024-02-02T17:54:29.348Z,45.01
2024-02-02T17:57:07.949Z,44.68
2024-02-02T17:59:41.100Z,44.70
2024-02-02T18:02:14.221Z,44.62
2024-02-02T18:04:52.719Z,45.03
2024-02-02T18:07:30.382Z,45.01
2024-02-02T18:10:12.262Z,45.07
2024-02-02T18:12:54.338Z,45.33
2024-02-02T18:15:32.372Z,45.52
2024-02-02T18:18:08.194Z,45.49
2024-02-02T18:20:46.279Z,45.64
2024-02-02T18:23:27.965Z,45.56
2024-02-02T18:26:05.325Z,45.63
2024-02-02T18:28:40.562Z,45.66
2024-02-02T18:31:18.463Z,45.67
2024-02-02T18:33:56.782Z,45.65
2024-02-02T18:36:33.003Z,46.00
2024-02-02T18:39:11.530Z,46.11
2024-02-02T18:41:46.813Z,46.22
2024-02-02T18:44:21.723Z,46.26
2024-02-02T18:47:00.060Z,46.03
2024-02-02T18:49:32.721Z,46.23
2024-02-02T18:52:08.631Z,46.56
2024-02-02T18:54:47.975Z,46.59
2024-02-02T18:57:23.636Z,46.68
2024-02-02T19:00:01.929Z,46.73
2024-02-02T19:02:42.115Z,46.55
2024-02-02T19:05:23.121Z,46.46
2024-02-02T19:08:00.626Z,46.63
2024-02-02T19:10:35.862Z,46.20
2024-02-02T19:13:16.336Z,46.82
2024-02-02T19:15:55.585Z,46.21
2024-02-02T19:18:41.213Z,46.43
2024-02-02T19:21:36.032Z,46.31
2024-02-02T19:24:19.934Z,45.87
2024-02-02T19:26:55.127Z,46.11
2024-02-02T19:29:29.872Z,46.54
2024-02-02T19:32:08.352Z,45.96
2024-02-02T19:34:45.788Z,45.81
2024-02-02T19:37:24.196Z,45.85
2024-02-02T19:40:08.065Z,45.20
2024-02-02T19:42:45.958Z,45.87
2024-02-02T19:45:23.958Z,45.66
2024-02-02T19:47:58.390Z,45.47
2024-02-02T19:50:41.608Z,45.80
2024-02-02T19:53:12.205Z,45.53
2024-02-02T19:55:52.538Z,44.97
2024-02-02T19:58:27.536Z,44.82
2024-02-02T20:01:06.375Z,45.22
2024-02-02T20:03:44.387Z,45.20
2024-02-02T20:06:21.648Z,44.90
2024-02-02T20:08:55.268Z,44.66
2024-02-02T20:11:31.676Z,44.31
2024-02-02T20:14:08.285Z,44.84
2024-02-02T20:16:51.321Z,44.94
2024-02-02T20:19:27.893Z,44.79
2024-02-02T20:22:08.601Z,44.36
2024-02-02T20:24:55.730Z,44.22
2024-02-02T20:27:36.488Z,43.88
2024-02-02T20:30:15.793Z,43.67
2024-02-02T20:32:50.204Z,43.68
2024-02-02T20:35:29.267Z,43.79
2024-02-02T20:38:02.615Z,43.68
2024-02-02T20:40:37.630Z,43.42
2024-02-02T20:43:20.743Z,43.38
2024-02-02T20:45:59.348Z,43.20
2024-02-02T20:48:36.272Z,44.01
2024-02-02T20:51:16.236Z,43.56
2024-02-02T20:53:55.509Z,43.35
2024-02-02T20:56:36.122Z,42.91
2024-02-02T20:59:06.227Z,42.68
2024-02-02T21:01:44.520Z,42.73
2024-02-02T21:04:22.670Z,42.68
2024-02-02T21:07:00.802Z,42.55
2024-02-02T21:09:37.068Z,42.38
2024-02-02T21:12:13.561Z,42.68
2024-02-02T21:14:46.649Z,42.37
2024-02-02T21:17:24.555Z,42.50
2024-02-02T21:20:05.896Z,42.08
2024-02-02T21:22:47.010Z,42.27
2024-02-02T21:25:21.619Z,42.45
2024-02-02T21:27:58.516Z,42.76
2024-02-02T21:30:33.086Z,42.19
2024-02-02T21:33:11.369Z,42.11
2024-02-02T21:35:46.584Z,41.84
2024-02-02T21:38:21.384Z,42.65
2024-02-02T21:40:59.878Z,42.54
2024-02-02T21:43:35.122Z,42.99
2024-02-02T21:46:12.328Z,42.93
2024-02-02T21:48:53.411Z,43.21
2024-02-02T21:51:31.379Z,43.91
2024-02-02T21:54:09.415Z,44.17
2024-02-02T21:56:53.108Z,44.32
2024-02-02T21:59:31.172Z,44.09
2024-02-02T22:02:08.760Z,43.88
2024-02-02T22:04:46.969Z,43.84
2024-02-02T22:07:36.924Z,44.31
2024-02-02T22:10:13.076Z,44.61
2024-02-02T22:12:53.428Z,45.76
2024-02-02T22:15:30.710Z,45.44
2024-02-02T22:18:09.041Z,45.23
2024-02-02T22:20:50.226Z,44.26
2024-02-02T22:23:22.328Z,44.03
2024-02-02T22:26:05.332Z,44.40
2024-02-02T22:28:41.662Z,44.12
2024-02-02T22:31:28.704Z,44.30
2024-02-02T22:34:06.816Z,44.64
2024-02-02T22:36:41.775Z,45.46
2024-02-02T22:39:17.844Z,45.36
2024-02-02T22:41:55.282Z,45.21
2024-02-02T22:44:27.520Z,45.50
2024-02-02T22:47:08.156Z,45.44
2024-02-02T22:49:42.247Z,45.22
2024-02-02T22:52:16.740Z,45.62
2024-02-02T22:54:54.303Z,45.87
2024-02-02T22:57:28.807Z,45.68
2024-02-02T23:00:10.961Z,45.54
2024-02-02T23:02:48.624Z,46.01
2024-02-02T23:05:29.882Z,45.88
2024-02-02T23:08:05.309Z,45.81
2024-02-02T23:10:37.652Z,45.86
2024-02-02T23:13:12.916Z,44.77
2024-02-02T23:15:54.296Z,44.83
2024-02-02T23:18:35.809Z,45.49
2024-02-02T23:21:13.378Z,45.66
2024-02-02T23:23:48.982Z,46.07
2024-02-02T23:26:26.631Z,45.48
2024-02-02T23:28:58.863Z,46.00
2024-02-02T23:31:39.561Z,45.47
2024-02-02T23:34:18.212Z,45.07
2024-02-02T23:36:57.003Z,45.64
2024-02-02T23:39:34.636Z,45.16
2024-02-02T23:42:09.844Z,45.25
2024-02-02T23:44:45.151Z,45.20
2024-02-02T23:47:17.904Z,45.94
2024-02-02T23:49:58.329Z,46.00
2024-02-02T23:52:38.848Z,46.09
2024-02-02T23:55:12.021Z,46.03
2024-02-02T23:57:52.265Z,46.66
